sensor_id;sensor_type;location;lat;lon;timestamp;P1;durP1;ratioP1;P2;durP2;ratioP2
56718;SDS011;42597;40.636;0.278;2023-02-07T00:01:26;8.00;;;4.28;;
56718;SDS011;42597;40.636;0.278;2023-02-07T00:03:53;10.85;;;4.32;;
56718;SDS011;42597;40.636;0.278;2023-02-07T00:06:21;10.45;;;4.32;;
56718;SDS011;42597;40.636;0.278;2023-02-07T00:08:52;9.60;;;4.43;;
56718;SDS011;42597;40.636;0.278;2023-02-07T00:11:19;7.07;;;4.22;;
56718;SDS011;42597;40.636;0.278;2023-02-07T00:13:48;37.50;;;24.52;;
56718;SDS011;42597;40.636;0.278;2023-02-07T00:16:17;20.52;;;14.73;;
56718;SDS011;42597;40.636;0.278;2023-02-07T00:18:43;9.80;;;4.97;;
56718;SDS011;42597;40.636;0.278;2023-02-07T00:21:10;9.05;;;4.93;;
56718;SDS011;42597;40.636;0.278;2023-02-07T00:23:39;9.13;;;3.83;;
56718;SDS011;42597;40.636;0.278;2023-02-07T00:26:05;9.00;;;4.32;;
56718;SDS011;42597;40.636;0.278;2023-02-07T00:28:32;10.18;;;4.80;;
56718;SDS011;42597;40.636;0.278;2023-02-07T00:31:16;9.38;;;5.35;;
56718;SDS011;42597;40.636;0.278;2023-02-07T00:33:47;8.00;;;5.05;;
56718;SDS011;42597;40.636;0.278;2023-02-07T00:36:15;9.68;;;5.25;;
56718;SDS011;42597;40.636;0.278;2023-02-07T00:38:43;7.25;;;4.97;;
56718;SDS011;42597;40.636;0.278;2023-02-07T00:41:10;12.57;;;5.75;;
56718;SDS011;42597;40.636;0.278;2023-02-07T00:43:41;10.25;;;5.57;;
56718;SDS011;42597;40.636;0.278;2023-02-07T00:46:08;10.82;;;5.75;;
56718;SDS011;42597;40.636;0.278;2023-02-07T00:48:33;13.50;;;5.10;;
56718;SDS011;42597;40.636;0.278;2023-02-07T00:50:59;8.93;;;4.13;;
56718;SDS011;42597;40.636;0.278;2023-02-07T00:53:26;14.75;;;10.00;;
56718;SDS011;42597;40.636;0.278;2023-02-07T00:55:53;8.38;;;3.90;;
56718;SDS011;42597;40.636;0.278;2023-02-07T00:58:19;9.20;;;4.28;;
56718;SDS011;42597;40.636;0.278;2023-02-07T01:00:45;14.98;;;9.27;;
56718;SDS011;42597;40.636;0.278;2023-02-07T01:03:11;13.82;;;9.32;;
56718;SDS011;42597;40.636;0.278;2023-02-07T01:05:37;9.70;;;6.28;;
56718;SDS011;42597;40.636;0.278;2023-02-07T01:08:03;9.65;;;7.20;;
56718;SDS011;42597;40.636;0.278;2023-02-07T01:10:29;5.80;;;3.05;;
56718;SDS011;42597;40.636;0.278;2023-02-07T01:12:55;9.38;;;4.03;;
56718;SDS011;42597;40.636;0.278;2023-02-07T01:15:20;15.98;;;10.77;;
56718;SDS011;42597;40.636;0.278;2023-02-07T01:17:46;11.55;;;7.03;;
56718;SDS011;42597;40.636;0.278;2023-02-07T01:20:12;18.05;;;11.80;;
56718;SDS011;42597;40.636;0.278;2023-02-07T01:22:38;12.80;;;8.23;;
56718;SDS011;42597;40.636;0.278;2023-02-07T01:25:04;6.78;;;3.53;;
56718;SDS011;42597;40.636;0.278;2023-02-07T01:27:31;4.47;;;2.13;;
56718;SDS011;42597;40.636;0.278;2023-02-07T01:29:57;6.78;;;2.70;;
56718;SDS011;42597;40.636;0.278;2023-02-07T01:32:23;6.57;;;3.33;;
56718;SDS011;42597;40.636;0.278;2023-02-07T01:34:48;7.57;;;4.80;;
56718;SDS011;42597;40.636;0.278;2023-02-07T01:37:14;9.18;;;5.63;;
56718;SDS011;42597;40.636;0.278;2023-02-07T01:39:39;6.93;;;3.47;;
56718;SDS011;42597;40.636;0.278;2023-02-07T01:42:05;6.03;;;2.55;;
56718;SDS011;42597;40.636;0.278;2023-02-07T01:46:56;6.93;;;3.10;;
56718;SDS011;42597;40.636;0.278;2023-02-07T01:49:26;7.80;;;4.00;;
56718;SDS011;42597;40.636;0.278;2023-02-07T01:51:59;4.53;;;2.33;;
56718;SDS011;42597;40.636;0.278;2023-02-07T01:54:29;11.70;;;4.45;;
56718;SDS011;42597;40.636;0.278;2023-02-07T01:56:59;5.40;;;2.45;;
56718;SDS011;42597;40.636;0.278;2023-02-07T01:59:28;4.40;;;2.38;;
56718;SDS011;42597;40.636;0.278;2023-02-07T02:01:56;7.78;;;3.03;;
56718;SDS011;42597;40.636;0.278;2023-02-07T02:04:24;5.53;;;3.13;;
56718;SDS011;42597;40.636;0.278;2023-02-07T02:06:50;6.30;;;3.22;;
56718;SDS011;42597;40.636;0.278;2023-02-07T02:09:16;4.32;;;2.42;;
56718;SDS011;42597;40.636;0.278;2023-02-07T02:30:33;6.32;;;2.80;;
56718;SDS011;42597;40.636;0.278;2023-02-07T02:36:18;4.28;;;2.30;;
56718;SDS011;42597;40.636;0.278;2023-02-07T02:44:34;8.82;;;4.57;;
56718;SDS011;42597;40.636;0.278;2023-02-07T02:47:07;7.88;;;4.15;;
56718;SDS011;42597;40.636;0.278;2023-02-07T02:49:35;7.20;;;2.97;;
56718;SDS011;42597;40.636;0.278;2023-02-07T02:52:01;8.35;;;2.70;;
56718;SDS011;42597;40.636;0.278;2023-02-07T02:54:31;9.95;;;4.00;;
56718;SDS011;42597;40.636;0.278;2023-02-07T03:05:45;7.40;;;3.30;;
56718;SDS011;42597;40.636;0.278;2023-02-07T03:11:16;6.97;;;2.38;;
56718;SDS011;42597;40.636;0.278;2023-02-07T03:19:31;8.00;;;2.50;;
56718;SDS011;42597;40.636;0.278;2023-02-07T03:22:06;6.15;;;2.28;;
56718;SDS011;42597;40.636;0.278;2023-02-07T03:24:38;7.68;;;2.58;;
56718;SDS011;42597;40.636;0.278;2023-02-07T03:27:09;4.85;;;2.33;;
56718;SDS011;42597;40.636;0.278;2023-02-07T03:29:38;5.00;;;2.83;;
56718;SDS011;42597;40.636;0.278;2023-02-07T03:32:06;5.95;;;2.25;;
56718;SDS011;42597;40.636;0.278;2023-02-07T03:34:38;6.43;;;2.63;;
56718;SDS011;42597;40.636;0.278;2023-02-07T03:39:50;3.50;;;1.98;;
56718;SDS011;42597;40.636;0.278;2023-02-07T03:42:25;4.88;;;2.10;;
56718;SDS011;42597;40.636;0.278;2023-02-07T03:44:54;3.97;;;1.63;;
56718;SDS011;42597;40.636;0.278;2023-02-07T03:47:23;7.50;;;2.63;;
56718;SDS011;42597;40.636;0.278;2023-02-07T03:49:50;4.97;;;2.13;;
56718;SDS011;42597;40.636;0.278;2023-02-07T03:52:15;4.68;;;2.70;;
56718;SDS011;42597;40.636;0.278;2023-02-07T03:54:41;6.30;;;1.70;;
56718;SDS011;42597;40.636;0.278;2023-02-07T03:57:06;3.95;;;2.22;;
56718;SDS011;42597;40.636;0.278;2023-02-07T03:59:32;8.20;;;2.88;;
56718;SDS011;42597;40.636;0.278;2023-02-07T04:01:57;2.20;;;1.40;;
56718;SDS011;42597;40.636;0.278;2023-02-07T04:04:23;9.82;;;2.63;;
56718;SDS011;42597;40.636;0.278;2023-02-07T04:06:48;2.47;;;1.60;;
56718;SDS011;42597;40.636;0.278;2023-02-07T04:09:14;3.65;;;1.85;;
56718;SDS011;42597;40.636;0.278;2023-02-07T04:11:40;5.97;;;2.75;;
56718;SDS011;42597;40.636;0.278;2023-02-07T04:14:05;3.92;;;1.95;;
56718;SDS011;42597;40.636;0.278;2023-02-07T04:16:31;5.30;;;2.20;;
56718;SDS011;42597;40.636;0.278;2023-02-07T04:18:56;2.83;;;1.85;;
56718;SDS011;42597;40.636;0.278;2023-02-07T04:21:22;5.80;;;2.30;;
56718;SDS011;42597;40.636;0.278;2023-02-07T04:23:47;3.47;;;1.85;;
56718;SDS011;42597;40.636;0.278;2023-02-07T04:26:13;4.85;;;2.60;;
56718;SDS011;42597;40.636;0.278;2023-02-07T04:28:38;4.82;;;2.22;;
56718;SDS011;42597;40.636;0.278;2023-02-07T04:31:04;5.13;;;2.22;;
56718;SDS011;42597;40.636;0.278;2023-02-07T04:33:29;9.60;;;2.72;;
56718;SDS011;42597;40.636;0.278;2023-02-07T04:35:55;6.80;;;2.90;;
56718;SDS011;42597;40.636;0.278;2023-02-07T04:38:23;12.60;;;5.25;;
56718;SDS011;42597;40.636;0.278;2023-02-07T04:40:49;26.95;;;12.73;;
56718;SDS011;42597;40.636;0.278;2023-02-07T04:43:15;17.67;;;8.45;;
56718;SDS011;42597;40.636;0.278;2023-02-07T04:45:41;24.88;;;16.13;;
56718;SDS011;42597;40.636;0.278;2023-02-07T04:48:06;6.50;;;2.85;;
56718;SDS011;42597;40.636;0.278;2023-02-07T04:50:32;4.65;;;2.53;;
56718;SDS011;42597;40.636;0.278;2023-02-07T04:52:58;5.78;;;2.92;;
56718;SDS011;42597;40.636;0.278;2023-02-07T04:55:23;3.80;;;2.30;;
56718;SDS011;42597;40.636;0.278;2023-02-07T04:57:49;6.13;;;2.08;;
56718;SDS011;42597;40.636;0.278;2023-02-07T05:00:15;6.47;;;2.15;;
56718;SDS011;42597;40.636;0.278;2023-02-07T05:02:41;3.80;;;2.03;;
56718;SDS011;42597;40.636;0.278;2023-02-07T05:05:08;4.93;;;2.15;;
56718;SDS011;42597;40.636;0.278;2023-02-07T05:07:34;5.07;;;2.45;;
56718;SDS011;42597;40.636;0.278;2023-02-07T05:09:59;8.45;;;2.83;;
56718;SDS011;42597;40.636;0.278;2023-02-07T05:12:25;5.65;;;1.80;;
56718;SDS011;42597;40.636;0.278;2023-02-07T05:14:50;3.45;;;1.70;;
56718;SDS011;42597;40.636;0.278;2023-02-07T05:17:16;5.07;;;1.92;;
56718;SDS011;42597;40.636;0.278;2023-02-07T05:19:41;8.15;;;2.10;;
56718;SDS011;42597;40.636;0.278;2023-02-07T05:22:07;4.65;;;2.53;;
56718;SDS011;42597;40.636;0.278;2023-02-07T05:24:33;5.55;;;1.95;;
56718;SDS011;42597;40.636;0.278;2023-02-07T05:26:58;5.95;;;2.63;;
56718;SDS011;42597;40.636;0.278;2023-02-07T05:29:24;4.35;;;1.95;;
56718;SDS011;42597;40.636;0.278;2023-02-07T05:31:49;3.40;;;1.50;;
56718;SDS011;42597;40.636;0.278;2023-02-07T05:34:33;4.97;;;1.65;;
56718;SDS011;42597;40.636;0.278;2023-02-07T05:36:59;3.10;;;1.85;;
56718;SDS011;42597;40.636;0.278;2023-02-07T05:39:25;5.50;;;2.50;;
56718;SDS011;42597;40.636;0.278;2023-02-07T05:41:50;6.03;;;2.55;;
56718;SDS011;42597;40.636;0.278;2023-02-07T05:44:16;4.57;;;2.53;;
56718;SDS011;42597;40.636;0.278;2023-02-07T05:46:41;4.38;;;2.20;;
56718;SDS011;42597;40.636;0.278;2023-02-07T05:49:07;8.57;;;3.05;;
56718;SDS011;42597;40.636;0.278;2023-02-07T05:51:32;4.88;;;2.75;;
56718;SDS011;42597;40.636;0.278;2023-02-07T05:53:58;3.90;;;2.20;;
56718;SDS011;42597;40.636;0.278;2023-02-07T05:56:24;3.40;;;2.30;;
56718;SDS011;42597;40.636;0.278;2023-02-07T05:58:49;2.60;;;1.50;;
56718;SDS011;42597;40.636;0.278;2023-02-07T06:01:15;7.47;;;2.35;;
56718;SDS011;42597;40.636;0.278;2023-02-07T06:03:40;4.35;;;1.67;;
56718;SDS011;42597;40.636;0.278;2023-02-07T06:06:06;4.45;;;1.67;;
56718;SDS011;42597;40.636;0.278;2023-02-07T06:08:31;3.65;;;1.48;;
56718;SDS011;42597;40.636;0.278;2023-02-07T06:10:57;2.85;;;1.30;;
56718;SDS011;42597;40.636;0.278;2023-02-07T06:13:22;5.05;;;2.03;;
56718;SDS011;42597;40.636;0.278;2023-02-07T06:15:48;7.90;;;1.88;;
56718;SDS011;42597;40.636;0.278;2023-02-07T06:18:13;3.72;;;1.83;;
56718;SDS011;42597;40.636;0.278;2023-02-07T06:20:39;2.83;;;1.55;;
56718;SDS011;42597;40.636;0.278;2023-02-07T06:23:04;6.95;;;2.13;;
56718;SDS011;42597;40.636;0.278;2023-02-07T06:25:30;6.00;;;2.30;;
56718;SDS011;42597;40.636;0.278;2023-02-07T06:27:55;3.38;;;1.85;;
56718;SDS011;42597;40.636;0.278;2023-02-07T06:30:21;8.80;;;5.53;;
56718;SDS011;42597;40.636;0.278;2023-02-07T06:32:47;7.00;;;3.10;;
56718;SDS011;42597;40.636;0.278;2023-02-07T06:35:13;8.07;;;4.50;;
56718;SDS011;42597;40.636;0.278;2023-02-07T06:37:39;4.88;;;2.17;;
56718;SDS011;42597;40.636;0.278;2023-02-07T06:40:04;6.70;;;3.45;;
56718;SDS011;42597;40.636;0.278;2023-02-07T06:42:31;18.25;;;13.57;;
56718;SDS011;42597;40.636;0.278;2023-02-07T06:44:56;18.08;;;13.88;;
56718;SDS011;42597;40.636;0.278;2023-02-07T06:47:22;13.30;;;7.65;;
56718;SDS011;42597;40.636;0.278;2023-02-07T06:49:48;8.20;;;4.05;;
56718;SDS011;42597;40.636;0.278;2023-02-07T06:52:13;5.53;;;2.65;;
56718;SDS011;42597;40.636;0.278;2023-02-07T06:54:39;4.47;;;1.75;;
56718;SDS011;42597;40.636;0.278;2023-02-07T06:57:04;4.95;;;2.88;;
56718;SDS011;42597;40.636;0.278;2023-02-07T06:59:30;5.05;;;2.30;;
56718;SDS011;42597;40.636;0.278;2023-02-07T07:01:56;6.70;;;2.22;;
56718;SDS011;42597;40.636;0.278;2023-02-07T07:04:21;4.97;;;2.40;;
56718;SDS011;42597;40.636;0.278;2023-02-07T07:06:47;10.98;;;7.18;;
56718;SDS011;42597;40.636;0.278;2023-02-07T07:09:12;6.25;;;3.08;;
56718;SDS011;42597;40.636;0.278;2023-02-07T07:11:38;6.82;;;5.38;;
56718;SDS011;42597;40.636;0.278;2023-02-07T07:14:07;11.95;;;10.77;;
56718;SDS011;42597;40.636;0.278;2023-02-07T07:16:33;6.40;;;3.63;;
56718;SDS011;42597;40.636;0.278;2023-02-07T07:18:59;5.95;;;3.25;;
56718;SDS011;42597;40.636;0.278;2023-02-07T07:21:25;6.38;;;2.25;;
56718;SDS011;42597;40.636;0.278;2023-02-07T07:23:52;5.20;;;2.65;;
56718;SDS011;42597;40.636;0.278;2023-02-07T07:26:17;5.40;;;3.47;;
56718;SDS011;42597;40.636;0.278;2023-02-07T07:28:43;8.38;;;4.90;;
56718;SDS011;42597;40.636;0.278;2023-02-07T07:31:08;4.47;;;2.25;;
56718;SDS011;42597;40.636;0.278;2023-02-07T07:33:34;5.20;;;2.67;;
56718;SDS011;42597;40.636;0.278;2023-02-07T07:36:00;7.22;;;3.63;;
56718;SDS011;42597;40.636;0.278;2023-02-07T07:38:27;7.18;;;3.38;;
56718;SDS011;42597;40.636;0.278;2023-02-07T07:40:53;5.97;;;4.45;;
56718;SDS011;42597;40.636;0.278;2023-02-07T07:43:18;8.25;;;5.35;;
56718;SDS011;42597;40.636;0.278;2023-02-07T07:45:44;7.75;;;4.10;;
56718;SDS011;42597;40.636;0.278;2023-02-07T07:48:10;14.75;;;5.57;;
56718;SDS011;42597;40.636;0.278;2023-02-07T07:50:36;7.43;;;5.50;;
56718;SDS011;42597;40.636;0.278;2023-02-07T07:53:02;7.47;;;4.85;;
56718;SDS011;42597;40.636;0.278;2023-02-07T07:55:27;9.43;;;4.43;;
56718;SDS011;42597;40.636;0.278;2023-02-07T07:57:53;6.45;;;4.57;;
56718;SDS011;42597;40.636;0.278;2023-02-07T08:00:18;13.82;;;9.13;;
56718;SDS011;42597;40.636;0.278;2023-02-07T08:02:44;10.18;;;6.03;;
56718;SDS011;42597;40.636;0.278;2023-02-07T08:05:09;7.90;;;5.68;;
56718;SDS011;42597;40.636;0.278;2023-02-07T08:07:36;9.00;;;5.82;;
56718;SDS011;42597;40.636;0.278;2023-02-07T08:10:02;13.80;;;4.05;;
56718;SDS011;42597;40.636;0.278;2023-02-07T08:12:27;15.73;;;7.95;;
56718;SDS011;42597;40.636;0.278;2023-02-07T08:14:53;6.15;;;3.55;;
56718;SDS011;42597;40.636;0.278;2023-02-07T08:17:18;7.78;;;2.55;;
56718;SDS011;42597;40.636;0.278;2023-02-07T08:19:44;9.93;;;5.25;;
56718;SDS011;42597;40.636;0.278;2023-02-07T08:22:09;14.70;;;9.90;;
56718;SDS011;42597;40.636;0.278;2023-02-07T08:24:35;8.38;;;4.45;;
56718;SDS011;42597;40.636;0.278;2023-02-07T08:27:01;6.80;;;3.65;;
56718;SDS011;42597;40.636;0.278;2023-02-07T08:29:27;9.30;;;4.50;;
56718;SDS011;42597;40.636;0.278;2023-02-07T08:31:53;7.45;;;4.53;;
56718;SDS011;42597;40.636;0.278;2023-02-07T08:34:18;5.70;;;3.72;;
56718;SDS011;42597;40.636;0.278;2023-02-07T08:36:48;6.78;;;2.97;;
56718;SDS011;42597;40.636;0.278;2023-02-07T08:39:14;8.48;;;3.00;;
56718;SDS011;42597;40.636;0.278;2023-02-07T08:41:39;10.05;;;5.20;;
56718;SDS011;42597;40.636;0.278;2023-02-07T08:44:05;8.40;;;4.25;;
56718;SDS011;42597;40.636;0.278;2023-02-07T08:46:30;7.05;;;3.03;;
56718;SDS011;42597;40.636;0.278;2023-02-07T08:48:56;4.40;;;2.42;;
56718;SDS011;42597;40.636;0.278;2023-02-07T08:51:22;4.88;;;2.80;;
56718;SDS011;42597;40.636;0.278;2023-02-07T08:53:47;4.53;;;2.88;;
56718;SDS011;42597;40.636;0.278;2023-02-07T08:56:13;7.05;;;2.95;;
56718;SDS011;42597;40.636;0.278;2023-02-07T08:58:38;4.35;;;2.58;;
56718;SDS011;42597;40.636;0.278;2023-02-07T09:01:05;4.65;;;2.17;;
56718;SDS011;42597;40.636;0.278;2023-02-07T09:03:35;10.45;;;4.45;;
56718;SDS011;42597;40.636;0.278;2023-02-07T09:06:01;8.52;;;5.57;;
56718;SDS011;42597;40.636;0.278;2023-02-07T09:08:27;6.65;;;3.75;;
56718;SDS011;42597;40.636;0.278;2023-02-07T09:10:52;11.98;;;6.43;;
56718;SDS011;42597;40.636;0.278;2023-02-07T09:13:18;15.25;;;9.93;;
56718;SDS011;42597;40.636;0.278;2023-02-07T09:15:43;19.65;;;11.90;;
56718;SDS011;42597;40.636;0.278;2023-02-07T09:18:09;15.68;;;9.80;;
56718;SDS011;42597;40.636;0.278;2023-02-07T09:20:34;11.65;;;7.18;;
56718;SDS011;42597;40.636;0.278;2023-02-07T09:23:01;13.65;;;9.27;;
56718;SDS011;42597;40.636;0.278;2023-02-07T09:25:41;8.25;;;5.38;;
56718;SDS011;42597;40.636;0.278;2023-02-07T09:28:07;9.98;;;6.55;;
56718;SDS011;42597;40.636;0.278;2023-02-07T09:30:33;11.20;;;6.53;;
56718;SDS011;42597;40.636;0.278;2023-02-07T09:32:58;9.80;;;5.57;;
56718;SDS011;42597;40.636;0.278;2023-02-07T09:35:24;11.50;;;5.85;;
56718;SDS011;42597;40.636;0.278;2023-02-07T09:37:53;10.55;;;6.80;;
56718;SDS011;42597;40.636;0.278;2023-02-07T09:45:23;11.52;;;7.68;;
56718;SDS011;42597;40.636;0.278;2023-02-07T09:47:54;11.02;;;7.38;;
56718;SDS011;42597;40.636;0.278;2023-02-07T09:50:29;10.88;;;8.57;;
56718;SDS011;42597;40.636;0.278;2023-02-07T09:53:05;12.15;;;8.90;;
56718;SDS011;42597;40.636;0.278;2023-02-07T09:58:17;14.02;;;9.45;;
56718;SDS011;42597;40.636;0.278;2023-02-07T10:00:52;13.55;;;10.27;;
56718;SDS011;42597;40.636;0.278;2023-02-07T10:03:27;12.05;;;9.40;;
56718;SDS011;42597;40.636;0.278;2023-02-07T10:06:29;15.32;;;8.48;;
56718;SDS011;42597;40.636;0.278;2023-02-07T10:08:54;16.77;;;14.50;;
56718;SDS011;42597;40.636;0.278;2023-02-07T10:27:58;17.20;;;13.07;;
56718;SDS011;42597;40.636;0.278;2023-02-07T10:30:45;11.88;;;8.43;;
56718;SDS011;42597;40.636;0.278;2023-02-07T10:35:43;11.93;;;7.68;;
56718;SDS011;42597;40.636;0.278;2023-02-07T10:41:03;10.60;;;7.28;;
56718;SDS011;42597;40.636;0.278;2023-02-07T10:43:37;11.60;;;7.75;;
56718;SDS011;42597;40.636;0.278;2023-02-07T10:46:07;11.70;;;8.67;;
56718;SDS011;42597;40.636;0.278;2023-02-07T10:48:35;12.50;;;8.90;;
56718;SDS011;42597;40.636;0.278;2023-02-07T10:51:02;11.98;;;8.70;;
56718;SDS011;42597;40.636;0.278;2023-02-07T10:53:43;13.18;;;9.23;;
56718;SDS011;42597;40.636;0.278;2023-02-07T10:56:23;11.00;;;9.13;;
56718;SDS011;42597;40.636;0.278;2023-02-07T10:58:51;13.73;;;6.43;;
56718;SDS011;42597;40.636;0.278;2023-02-07T11:01:22;8.70;;;5.97;;
56718;SDS011;42597;40.636;0.278;2023-02-07T11:03:49;12.32;;;8.43;;
56718;SDS011;42597;40.636;0.278;2023-02-07T11:06:49;9.75;;;6.68;;
56718;SDS011;42597;40.636;0.278;2023-02-07T11:09:12;15.68;;;10.95;;
56718;SDS011;42597;40.636;0.278;2023-02-07T11:11:48;11.68;;;9.98;;
56718;SDS011;42597;40.636;0.278;2023-02-07T11:14:16;12.85;;;8.63;;
56718;SDS011;42597;40.636;0.278;2023-02-07T11:19:16;10.32;;;7.47;;
56718;SDS011;42597;40.636;0.278;2023-02-07T11:21:44;14.02;;;11.18;;
56718;SDS011;42597;40.636;0.278;2023-02-07T11:24:13;10.63;;;8.43;;
56718;SDS011;42597;40.636;0.278;2023-02-07T11:27:01;13.55;;;6.80;;
56718;SDS011;42597;40.636;0.278;2023-02-07T11:29:30;9.65;;;5.72;;
56718;SDS011;42597;40.636;0.278;2023-02-07T11:31:59;10.30;;;6.05;;
56718;SDS011;42597;40.636;0.278;2023-02-07T11:34:39;8.88;;;5.53;;
56718;SDS011;42597;40.636;0.278;2023-02-07T11:37:28;9.80;;;6.07;;
56718;SDS011;42597;40.636;0.278;2023-02-07T11:39:55;9.60;;;5.60;;
56718;SDS011;42597;40.636;0.278;2023-02-07T11:42:41;7.63;;;4.97;;
56718;SDS011;42597;40.636;0.278;2023-02-07T11:45:12;10.77;;;6.22;;
56718;SDS011;42597;40.636;0.278;2023-02-07T11:47:40;9.25;;;5.28;;
56718;SDS011;42597;40.636;0.278;2023-02-07T11:50:11;11.13;;;6.82;;
56718;SDS011;42597;40.636;0.278;2023-02-07T11:52:50;7.93;;;5.38;;
56718;SDS011;42597;40.636;0.278;2023-02-07T11:55:22;9.32;;;4.90;;
56718;SDS011;42597;40.636;0.278;2023-02-07T11:57:53;12.98;;;5.28;;
56718;SDS011;42597;40.636;0.278;2023-02-07T12:02:59;11.25;;;6.50;;
56718;SDS011;42597;40.636;0.278;2023-02-07T12:05:31;11.63;;;8.18;;
56718;SDS011;42597;40.636;0.278;2023-02-07T12:08:01;7.70;;;5.60;;
56718;SDS011;42597;40.636;0.278;2023-02-07T12:10:56;9.25;;;6.38;;
56718;SDS011;42597;40.636;0.278;2023-02-07T12:16:23;21.10;;;18.02;;
56718;SDS011;42597;40.636;0.278;2023-02-07T12:18:54;15.52;;;13.93;;
56718;SDS011;42597;40.636;0.278;2023-02-07T12:24:23;9.48;;;7.20;;
56718;SDS011;42597;40.636;0.278;2023-02-07T12:27:28;8.25;;;5.10;;
56718;SDS011;42597;40.636;0.278;2023-02-07T12:33:14;9.77;;;5.60;;
56718;SDS011;42597;40.636;0.278;2023-02-07T12:38:50;10.82;;;6.70;;
56718;SDS011;42597;40.636;0.278;2023-02-07T13:08:05;16.90;;;13.68;;
56718;SDS011;42597;40.636;0.278;2023-02-07T13:15:52;12.35;;;8.90;;
56718;SDS011;42597;40.636;0.278;2023-02-07T13:18:32;10.55;;;6.90;;
56718;SDS011;42597;40.636;0.278;2023-02-07T13:21:26;11.60;;;7.38;;
56718;SDS011;42597;40.636;0.278;2023-02-07T13:24:03;10.05;;;6.82;;
56718;SDS011;42597;40.636;0.278;2023-02-07T13:26:32;9.45;;;6.72;;
56718;SDS011;42597;40.636;0.278;2023-02-07T13:29:11;13.25;;;6.72;;
56718;SDS011;42597;40.636;0.278;2023-02-07T13:31:40;9.15;;;6.55;;
56718;SDS011;42597;40.636;0.278;2023-02-07T13:34:23;12.95;;;6.78;;
56718;SDS011;42597;40.636;0.278;2023-02-07T13:36:52;9.77;;;7.38;;
56718;SDS011;42597;40.636;0.278;2023-02-07T13:44:33;12.60;;;9.50;;
56718;SDS011;42597;40.636;0.278;2023-02-07T13:55:40;10.25;;;7.05;;
56718;SDS011;42597;40.636;0.278;2023-02-07T13:59:23;10.20;;;7.15;;
56718;SDS011;42597;40.636;0.278;2023-02-07T14:01:25;9.43;;;7.03;;
56718;SDS011;42597;40.636;0.278;2023-02-07T14:06:27;8.18;;;6.45;;
56718;SDS011;42597;40.636;0.278;2023-02-07T14:12:03;11.57;;;9.00;;
56718;SDS011;42597;40.636;0.278;2023-02-07T14:14:42;15.90;;;14.25;;
56718;SDS011;42597;40.636;0.278;2023-02-07T14:17:14;21.83;;;16.23;;
56718;SDS011;42597;40.636;0.278;2023-02-07T14:19:59;12.57;;;8.20;;
56718;SDS011;42597;40.636;0.278;2023-02-07T14:27:28;18.45;;;12.05;;
56718;SDS011;42597;40.636;0.278;2023-02-07T14:32:34;21.40;;;18.13;;
56718;SDS011;42597;40.636;0.278;2023-02-07T14:45:56;8.27;;;5.47;;
56718;SDS011;42597;40.636;0.278;2023-02-07T14:51:05;7.40;;;5.20;;
56718;SDS011;42597;40.636;0.278;2023-02-07T14:53:38;7.40;;;4.57;;
56718;SDS011;42597;40.636;0.278;2023-02-07T14:56:04;8.00;;;5.97;;
56718;SDS011;42597;40.636;0.278;2023-02-07T14:58:41;8.10;;;5.10;;
56718;SDS011;42597;40.636;0.278;2023-02-07T15:01:13;7.82;;;4.95;;
56718;SDS011;42597;40.636;0.278;2023-02-07T15:03:44;7.40;;;5.65;;
56718;SDS011;42597;40.636;0.278;2023-02-07T15:06:16;9.25;;;5.13;;
56718;SDS011;42597;40.636;0.278;2023-02-07T15:11:48;10.38;;;5.40;;
56718;SDS011;42597;40.636;0.278;2023-02-07T15:14:20;8.75;;;5.35;;
56718;SDS011;42597;40.636;0.278;2023-02-07T15:16:51;7.88;;;4.75;;
56718;SDS011;42597;40.636;0.278;2023-02-07T15:19:31;8.25;;;5.82;;
56718;SDS011;42597;40.636;0.278;2023-02-07T15:21:59;13.55;;;11.75;;
56718;SDS011;42597;40.636;0.278;2023-02-07T15:24:27;23.58;;;16.67;;
56718;SDS011;42597;40.636;0.278;2023-02-07T15:26:56;17.88;;;12.30;;
56718;SDS011;42597;40.636;0.278;2023-02-07T15:29:28;17.02;;;15.35;;
56718;SDS011;42597;40.636;0.278;2023-02-07T15:31:56;11.27;;;9.18;;
56718;SDS011;42597;40.636;0.278;2023-02-07T15:34:23;12.18;;;9.98;;
56718;SDS011;42597;40.636;0.278;2023-02-07T15:36:59;9.73;;;7.15;;
56718;SDS011;42597;40.636;0.278;2023-02-07T15:39:37;10.00;;;7.05;;
56718;SDS011;42597;40.636;0.278;2023-02-07T15:42:03;7.70;;;4.85;;
56718;SDS011;42597;40.636;0.278;2023-02-07T15:44:30;7.70;;;5.93;;
56718;SDS011;42597;40.636;0.278;2023-02-07T15:47:01;8.13;;;6.25;;
56718;SDS011;42597;40.636;0.278;2023-02-07T15:49:32;8.02;;;5.32;;
56718;SDS011;42597;40.636;0.278;2023-02-07T15:52:12;8.52;;;7.18;;
56718;SDS011;42597;40.636;0.278;2023-02-07T15:54:49;7.95;;;6.45;;
56718;SDS011;42597;40.636;0.278;2023-02-07T15:57:26;13.80;;;9.35;;
56718;SDS011;42597;40.636;0.278;2023-02-07T15:59:59;13.20;;;6.97;;
56718;SDS011;42597;40.636;0.278;2023-02-07T16:02:52;18.77;;;12.15;;
56718;SDS011;42597;40.636;0.278;2023-02-07T16:05:22;18.55;;;10.77;;
56718;SDS011;42597;40.636;0.278;2023-02-07T16:07:51;10.77;;;7.90;;
56718;SDS011;42597;40.636;0.278;2023-02-07T16:13:31;13.95;;;10.93;;
56718;SDS011;42597;40.636;0.278;2023-02-07T16:15:52;12.13;;;8.25;;
56718;SDS011;42597;40.636;0.278;2023-02-07T16:21:15;19.50;;;14.82;;
56718;SDS011;42597;40.636;0.278;2023-02-07T16:23:59;15.05;;;9.75;;
56718;SDS011;42597;40.636;0.278;2023-02-07T16:28:56;18.48;;;11.82;;
56718;SDS011;42597;40.636;0.278;2023-02-07T16:31:22;20.92;;;16.70;;
56718;SDS011;42597;40.636;0.278;2023-02-07T16:33:47;49.28;;;44.63;;
56718;SDS011;42597;40.636;0.278;2023-02-07T16:36:14;36.72;;;33.55;;
56718;SDS011;42597;40.636;0.278;2023-02-07T16:38:41;15.25;;;13.80;;
56718;SDS011;42597;40.636;0.278;2023-02-07T16:41:27;25.52;;;22.90;;
56718;SDS011;42597;40.636;0.278;2023-02-07T16:43:57;31.85;;;24.63;;
56718;SDS011;42597;40.636;0.278;2023-02-07T16:46:27;14.60;;;9.98;;
56718;SDS011;42597;40.636;0.278;2023-02-07T16:48:53;40.28;;;36.42;;
56718;SDS011;42597;40.636;0.278;2023-02-07T16:51:18;133.60;;;87.15;;
56718;SDS011;42597;40.636;0.278;2023-02-07T16:53:44;37.53;;;23.80;;
56718;SDS011;42597;40.636;0.278;2023-02-07T16:56:11;106.65;;;63.83;;
56718;SDS011;42597;40.636;0.278;2023-02-07T16:58:39;46.70;;;28.00;;
56718;SDS011;42597;40.636;0.278;2023-02-07T17:01:04;125.20;;;96.80;;
56718;SDS011;42597;40.636;0.278;2023-02-07T17:03:30;57.65;;;42.95;;
56718;SDS011;42597;40.636;0.278;2023-02-07T17:05:56;46.95;;;39.33;;
56718;SDS011;42597;40.636;0.278;2023-02-07T17:08:21;27.00;;;24.10;;
56718;SDS011;42597;40.636;0.278;2023-02-07T17:10:52;26.50;;;20.60;;
56718;SDS011;42597;40.636;0.278;2023-02-07T17:13:22;54.85;;;50.05;;
56718;SDS011;42597;40.636;0.278;2023-02-07T17:15:48;21.08;;;18.13;;
56718;SDS011;42597;40.636;0.278;2023-02-07T17:18:13;13.13;;;11.82;;
56718;SDS011;42597;40.636;0.278;2023-02-07T17:20:39;17.48;;;15.95;;
56718;SDS011;42597;40.636;0.278;2023-02-07T17:23:05;20.13;;;18.33;;
56718;SDS011;42597;40.636;0.278;2023-02-07T17:25:30;18.67;;;16.90;;
56718;SDS011;42597;40.636;0.278;2023-02-07T17:27:56;23.10;;;21.00;;
56718;SDS011;42597;40.636;0.278;2023-02-07T17:32:52;13.20;;;9.27;;
56718;SDS011;42597;40.636;0.278;2023-02-07T17:35:18;9.07;;;5.18;;
56718;SDS011;42597;40.636;0.278;2023-02-07T17:37:44;18.33;;;14.88;;
56718;SDS011;42597;40.636;0.278;2023-02-07T17:42:47;6.40;;;3.58;;
56718;SDS011;42597;40.636;0.278;2023-02-07T17:45:13;8.63;;;6.28;;
56718;SDS011;42597;40.636;0.278;2023-02-07T17:47:38;7.93;;;5.40;;
56718;SDS011;42597;40.636;0.278;2023-02-07T17:50:04;9.85;;;6.38;;
56718;SDS011;42597;40.636;0.278;2023-02-07T17:52:31;7.70;;;5.05;;
56718;SDS011;42597;40.636;0.278;2023-02-07T17:54:57;5.75;;;3.72;;
56718;SDS011;42597;40.636;0.278;2023-02-07T17:57:22;6.30;;;4.68;;